createdAt,value
2019-06-20T00:02:06.338Z,6.63
2019-06-20T00:06:59.855Z,5.60
2019-06-20T00:11:53.775Z,5.00
2019-06-20T00:16:47.451Z,6.80
2019-06-20T00:21:40.876Z,4.00
2019-06-20T00:26:34.356Z,8.73
2019-06-20T00:31:27.886Z,6.30
2019-06-20T00:36:21.289Z,5.93
2019-06-20T00:41:14.944Z,4.57
2019-06-20T00:46:08.474Z,4.47
2019-06-20T00:51:03.057Z,5.47
2019-06-20T00:55:56.396Z,3.70
2019-06-20T01:00:49.876Z,3.90
2019-06-20T01:05:43.420Z,7.50
2019-06-20T01:10:36.910Z,5.77
2019-06-20T01:15:30.459Z,5.43
2019-06-20T01:20:25.752Z,6.60
2019-06-20T01:25:38.545Z,2.60
2019-06-20T01:30:32.017Z,5.00
2019-06-20T01:35:25.566Z,4.20
2019-06-20T01:40:19.111Z,2.80
2019-06-20T01:45:13.415Z,7.67
2019-06-20T01:50:07.281Z,3.20
2019-06-20T01:55:00.930Z,3.17
2019-06-20T01:59:56.031Z,4.50
2019-06-20T02:04:49.574Z,5.03
2019-06-20T02:09:43.077Z,3.17
2019-06-20T02:14:36.341Z,3.20
2019-06-20T02:19:29.789Z,2.87
2019-06-20T02:24:25.105Z,3.63
2019-06-20T02:29:18.521Z,3.93
2019-06-20T02:34:12.097Z,4.53
2019-06-20T02:39:07.200Z,3.40
2019-06-20T02:44:02.675Z,4.30
2019-06-20T02:48:56.224Z,6.83
2019-06-20T02:53:49.723Z,3.43
2019-06-20T02:58:45.521Z,5.40
2019-06-20T03:03:38.863Z,3.70
2019-06-20T03:08:34.148Z,5.00
2019-06-20T03:13:27.613Z,7.23
2019-06-20T03:18:21.133Z,5.10
2019-06-20T03:23:14.651Z,4.97
2019-06-20T03:28:08.248Z,5.73
2019-06-20T03:33:01.671Z,6.47
2019-06-20T03:37:55.201Z,6.57
2019-06-20T03:42:48.637Z,7.13
2019-06-20T03:47:42.085Z,8.37
2019-06-20T03:52:35.693Z,7.17
2019-06-20T03:57:29.278Z,7.50
2019-06-20T04:02:22.726Z,9.83
2019-06-20T04:07:17.308Z,6.77
2019-06-20T04:12:10.815Z,9.90
2019-06-20T04:17:04.528Z,6.63
2019-06-20T04:21:58.110Z,10.20
2019-06-20T04:26:51.661Z,7.97
2019-06-20T04:31:45.252Z,7.53
2019-06-20T04:36:38.928Z,7.00
2019-06-20T04:41:32.407Z,7.50
2019-06-20T04:46:34.745Z,8.10
2019-06-20T04:51:28.328Z,8.83
2019-06-20T04:56:21.863Z,9.00
2019-06-20T05:01:15.358Z,10.33
2019-06-20T05:06:09.975Z,10.67
2019-06-20T05:11:03.489Z,11.33
2019-06-20T05:15:57.216Z,11.33
2019-06-20T05:20:50.815Z,11.57
2019-06-20T05:25:44.389Z,9.33
2019-06-20T05:30:37.845Z,12.93
2019-06-20T05:35:31.437Z,10.93
2019-06-20T05:40:25.442Z,11.73
2019-06-20T05:45:19.023Z,13.33
2019-06-20T05:50:13.314Z,9.67
2019-06-20T05:55:07.361Z,10.00
2019-06-20T06:00:00.970Z,8.80
2019-06-20T06:04:54.671Z,10.10
2019-06-20T06:09:48.153Z,11.10
2019-06-20T06:14:41.863Z,7.43
2019-06-20T06:19:35.423Z,7.17
2019-06-20T06:24:29.094Z,6.40
2019-06-20T06:29:22.673Z,5.57
2019-06-20T06:34:16.182Z,4.83
2019-06-20T06:39:10.452Z,4.23
2019-06-20T06:44:04.323Z,5.07
2019-06-20T06:48:57.822Z,4.93
2019-06-20T06:53:52.735Z,4.40
2019-06-20T06:58:46.321Z,6.17
2019-06-20T07:03:39.715Z,4.73
2019-06-20T07:08:33.210Z,3.67
2019-06-20T07:13:26.692Z,3.93
2019-06-20T07:18:20.165Z,6.50
2019-06-20T07:23:13.470Z,5.70
2019-06-20T07:28:06.842Z,5.47
2019-06-20T07:33:00.293Z,5.20
2019-06-20T07:37:53.962Z,6.43
2019-06-20T07:42:48.403Z,4.50
2019-06-20T07:47:42.035Z,4.63
2019-06-20T07:52:35.415Z,5.30
2019-06-20T07:57:28.907Z,8.10
2019-06-20T08:02:22.313Z,4.97
2019-06-20T08:07:15.613Z,6.40
2019-06-20T08:12:09.028Z,4.47
2019-06-20T08:17:02.570Z,5.63
2019-06-20T08:21:56.307Z,3.80
2019-06-20T08:26:49.712Z,6.30
2019-06-20T08:31:43.065Z,5.23
2019-06-20T08:36:36.096Z,4.40
2019-06-20T08:41:29.276Z,4.27
2019-06-20T08:46:22.730Z,4.67
2019-06-20T08:51:15.870Z,4.67
2019-06-20T08:56:08.879Z,3.30
2019-06-20T09:05:58.222Z,4.10
2019-06-20T09:10:54.140Z,5.10
2019-06-20T09:15:47.061Z,3.47
2019-06-20T09:20:40.469Z,4.17
2019-06-20T09:25:33.757Z,3.30
2019-06-20T09:30:26.968Z,3.60
2019-06-20T09:35:20.335Z,2.77
2019-06-20T09:40:13.972Z,4.17
2019-06-20T09:45:07.867Z,3.80
2019-06-20T09:50:01.369Z,2.57
2019-06-20T09:54:56.124Z,4.00
2019-06-20T10:00:02.838Z,3.07
2019-06-20T10:04:44.168Z,3.60
2019-06-20T10:09:37.373Z,2.30
2019-06-20T10:14:30.612Z,3.30
2019-06-20T10:19:25.831Z,3.27
2019-06-20T10:24:22.049Z,3.40
2019-06-20T10:29:15.328Z,4.70
2019-06-20T10:34:08.950Z,2.37
2019-06-20T10:39:03.363Z,3.50
2019-06-20T10:43:56.830Z,3.23
2019-06-20T10:48:52.717Z,2.60
2019-06-20T10:53:47.144Z,3.17
2019-06-20T10:58:42.007Z,2.20
2019-06-20T11:03:36.328Z,2.93
2019-06-20T11:08:29.665Z,2.40
2019-06-20T11:13:23.260Z,2.30
2019-06-20T11:18:16.653Z,2.90
2019-06-20T11:23:10.019Z,2.93
2019-06-20T11:28:03.675Z,2.50
2019-06-20T11:32:57.248Z,2.93
2019-06-20T11:37:50.874Z,3.67
2019-06-20T11:42:44.622Z,4.50
2019-06-20T11:47:38.356Z,2.77
2019-06-20T11:52:35.347Z,2.77
2019-06-20T11:57:28.770Z,2.33
2019-06-20T12:02:22.940Z,3.47
2019-06-20T12:07:16.559Z,2.30
2019-06-20T12:12:10.196Z,3.70
2019-06-20T12:17:03.868Z,2.63
2019-06-20T12:21:57.670Z,2.37
2019-06-20T12:26:51.425Z,4.40
2019-06-20T12:31:45.877Z,2.97
2019-06-20T12:36:40.827Z,2.77
2019-06-20T12:41:34.827Z,4.33
2019-06-20T12:46:28.434Z,4.03
2019-06-20T12:51:22.145Z,5.03
2019-06-20T12:56:15.637Z,3.40
2019-06-20T13:01:09.212Z,4.23
2019-06-20T13:06:02.946Z,5.97
2019-06-20T13:10:57.353Z,5.47
2019-06-20T13:15:50.674Z,5.73
2019-06-20T13:20:44.324Z,5.43
2019-06-20T13:25:39.176Z,6.07
2019-06-20T13:30:33.326Z,11.23
2019-06-20T13:35:28.342Z,9.37
2019-06-20T13:40:22.020Z,8.00
2019-06-20T13:45:20.300Z,7.87
2019-06-20T13:50:13.853Z,8.80
2019-06-20T13:55:07.650Z,10.97
2019-06-20T14:00:01.729Z,9.10
2019-06-20T14:04:55.511Z,11.07
2019-06-20T14:09:51.129Z,10.03
2019-06-20T14:14:45.927Z,9.40
2019-06-20T14:19:39.335Z,8.80
2019-06-20T14:24:33.038Z,9.03
2019-06-20T14:29:26.518Z,10.90
2019-06-20T14:34:20.006Z,10.27
2019-06-20T14:39:13.368Z,9.70
2019-06-20T14:44:06.978Z,7.97
2019-06-20T14:49:00.313Z,7.10
2019-06-20T14:53:54.519Z,7.63
2019-06-20T14:58:48.719Z,7.93
2019-06-20T15:03:42.544Z,7.30
2019-06-20T15:08:36.098Z,7.93
2019-06-20T15:13:29.591Z,7.63
2019-06-20T15:18:24.808Z,4.83
2019-06-20T15:23:18.448Z,5.37
2019-06-20T15:28:11.952Z,6.17
2019-06-20T15:33:10.286Z,5.57
2019-06-20T15:38:01.249Z,5.57
2019-06-20T15:42:55.423Z,5.10
2019-06-20T15:47:50.398Z,4.73
2019-06-20T15:52:43.845Z,3.90
2019-06-20T15:57:37.576Z,3.07
2019-06-20T16:02:31.150Z,3.43
2019-06-20T16:07:24.821Z,2.60
2019-06-20T16:12:19.119Z,3.47
2019-06-20T16:17:12.597Z,2.43
2019-06-20T16:22:06.142Z,3.27
2019-06-20T16:26:59.884Z,3.23
2019-06-20T16:31:53.365Z,3.53
2019-06-20T16:36:46.834Z,4.23
2019-06-20T16:41:40.409Z,4.27
2019-06-20T16:46:35.900Z,2.50
2019-06-20T16:51:29.661Z,4.57
2019-06-20T16:56:23.087Z,4.53
2019-06-20T17:01:16.908Z,5.10
2019-06-20T17:06:10.468Z,3.80
2019-06-20T17:11:04.330Z,5.07
2019-06-20T17:15:57.741Z,4.63
2019-06-20T17:20:51.093Z,6.23
2019-06-20T17:25:44.489Z,3.93
2019-06-20T17:30:39.206Z,5.87
2019-06-20T17:35:32.774Z,2.93
2019-06-20T17:40:26.788Z,3.80
2019-06-20T17:45:23.032Z,4.23
2019-06-20T17:50:16.972Z,4.37
2019-06-20T17:55:13.550Z,4.43
2019-06-20T18:00:07.962Z,5.50
2019-06-20T18:05:02.886Z,4.67
2019-06-20T18:09:56.451Z,6.67
2019-06-20T18:14:49.953Z,4.50
2019-06-20T18:19:43.571Z,6.47
2019-06-20T18:24:37.421Z,3.87
2019-06-20T18:29:31.013Z,5.33
2019-06-20T18:34:29.977Z,4.47
2019-06-20T18:39:20.300Z,6.20
2019-06-20T18:44:15.340Z,4.47
2019-06-20T18:49:08.768Z,6.70
2019-06-20T18:54:02.478Z,5.30
2019-06-20T18:58:55.977Z,4.07
2019-06-20T19:03:49.472Z,6.77
2019-06-20T19:08:42.906Z,7.13
2019-06-20T19:13:36.265Z,5.93
2019-06-20T19:18:29.811Z,4.90
2019-06-20T19:23:23.615Z,4.40
2019-06-20T19:28:17.255Z,5.37
2019-06-20T19:33:11.928Z,4.30
2019-06-20T19:38:06.427Z,5.83
2019-06-20T19:43:00.047Z,5.20
2019-06-20T19:47:53.628Z,5.23
2019-06-20T19:52:47.135Z,4.50
2019-06-20T19:57:41.687Z,6.30
2019-06-20T20:02:35.148Z,5.60
2019-06-20T20:07:28.822Z,5.20
2019-06-20T20:12:22.378Z,5.20
2019-06-20T20:17:15.968Z,5.80
2019-06-20T20:22:09.668Z,5.80
2019-06-20T20:27:03.121Z,7.97
2019-06-20T20:31:56.681Z,5.33
2019-06-20T20:36:50.151Z,6.10
2019-06-20T20:41:43.690Z,8.43
2019-06-20T20:46:37.229Z,6.67
2019-06-20T20:51:30.935Z,7.23
2019-06-20T20:56:24.821Z,6.77
2019-06-20T21:01:29.358Z,7.00
2019-06-20T21:06:25.166Z,6.67
2019-06-20T21:11:18.689Z,6.80
2019-06-20T21:16:12.317Z,7.17
2019-06-20T21:21:05.908Z,11.03
2019-06-20T21:25:59.635Z,9.00
2019-06-20T21:30:53.126Z,7.93
2019-06-20T21:35:46.695Z,11.20
2019-06-20T21:40:40.185Z,10.17
2019-06-20T21:45:33.663Z,10.27
2019-06-20T21:50:27.312Z,9.77
2019-06-20T21:55:22.087Z,8.77
2019-06-20T22:00:22.920Z,9.53
2019-06-20T22:05:16.446Z,8.73
2019-06-20T22:10:10.255Z,9.67
2019-06-20T22:15:04.383Z,9.77
2019-06-20T22:19:58.050Z,13.10
2019-06-20T22:24:51.717Z,10.27
2019-06-20T22:29:45.092Z,11.60
2019-06-20T22:34:38.594Z,9.40
2019-06-20T22:39:32.366Z,11.17
2019-06-20T22:44:25.809Z,9.93
2019-06-20T22:49:19.426Z,10.80
2019-06-20T22:54:12.905Z,10.80
2019-06-20T22:59:06.617Z,10.43
2019-06-20T23:03:59.970Z,10.20
2019-06-20T23:08:53.574Z,10.93
2019-06-20T23:13:47.272Z,11.40
2019-06-20T23:18:40.920Z,12.93
2019-06-20T23:23:34.416Z,10.23
2019-06-20T23:28:28.033Z,11.47
2019-06-20T23:33:21.497Z,12.53
2019-06-20T23:38:14.909Z,12.53
2019-06-20T23:43:08.433Z,12.37
2019-06-20T23:48:01.798Z,10.17
2019-06-20T23:53:00.745Z,12.33
2019-06-20T23:57:55.820Z,12.03
